createdAt,value
2023-03-23T15:59:10.907Z,99911.06
2023-03-23T16:01:41.103Z,99895.78
2023-03-23T16:04:12.035Z,99902.94
2023-03-23T16:06:39.343Z,99916.28
2023-03-23T16:09:06.913Z,99911.88
2023-03-23T16:11:34.442Z,99908.16
2023-03-23T16:14:02.124Z,99905.97
2023-03-23T16:16:39.444Z,99909.97
2023-03-23T16:19:06.678Z,99914.16
2023-03-23T16:21:33.338Z,99916.09
2023-03-23T16:24:00.399Z,99910.81
2023-03-23T16:26:27.336Z,99911.69
2023-03-23T16:29:02.677Z,99909.66
2023-03-23T16:31:36.854Z,99908.84
2023-03-23T16:34:04.121Z,99900.06
2023-03-23T16:36:30.863Z,99892.06
2023-03-23T16:38:57.509Z,99896.13
2023-03-23T16:41:24.147Z,99897.81
2023-03-23T16:43:51.375Z,99899.03
2023-03-23T16:46:18.140Z,99897.81
2023-03-23T16:48:44.995Z,99889.59
2023-03-23T16:51:12.089Z,99906.19
2023-03-23T16:53:38.794Z,99901.69
2023-03-23T16:56:06.041Z,99894.31
2023-03-23T16:58:32.789Z,99897.78
2023-03-23T17:01:01.494Z,99893.50
2023-03-23T17:03:28.249Z,99885.09
2023-03-23T17:05:54.978Z,99897.56
2023-03-23T17:08:21.950Z,99905.09
2023-03-23T17:10:48.901Z,99888.75
2023-03-23T17:13:15.883Z,99905.38
2023-03-23T17:15:46.438Z,99899.22
2023-03-23T17:18:14.221Z,99904.13
2023-03-23T17:20:41.008Z,99908.44
2023-03-23T17:23:08.021Z,99912.97
2023-03-23T17:25:34.859Z,99918.28
2023-03-23T17:28:05.860Z,99915.00
2023-03-23T17:30:34.512Z,99907.41
2023-03-23T17:33:01.288Z,99912.50
2023-03-23T17:35:28.149Z,99902.50
2023-03-23T17:37:54.895Z,99919.50
2023-03-23T17:40:21.610Z,99914.97
2023-03-23T17:42:48.248Z,99911.69
2023-03-23T17:45:14.903Z,99921.75
2023-03-23T17:47:41.872Z,99915.00
2023-03-23T17:50:11.396Z,99922.16
2023-03-23T17:52:39.800Z,99923.16
2023-03-23T17:55:07.323Z,99924.19
2023-03-23T17:57:35.311Z,99923.19
2023-03-23T18:00:02.789Z,99926.03
2023-03-23T18:02:29.567Z,99924.19
2023-03-23T18:04:59.885Z,99910.06
2023-03-23T18:07:27.126Z,99927.69
2023-03-23T18:09:59.704Z,99928.09
2023-03-23T18:12:26.892Z,99926.66
2023-03-23T18:14:58.528Z,99925.22
2023-03-23T18:17:26.589Z,99922.56
2023-03-23T18:19:53.876Z,99933.63
2023-03-23T18:22:20.732Z,99935.25
2023-03-23T18:24:47.596Z,99945.72
2023-03-23T18:27:14.471Z,99942.22
2023-03-23T18:29:41.241Z,99944.06
2023-03-23T18:32:08.547Z,99949.81
2023-03-23T18:34:36.594Z,99955.34
2023-03-23T18:37:04.242Z,99954.31
2023-03-23T18:39:34.036Z,99953.28
2023-03-23T18:42:01.387Z,99955.91
2023-03-23T18:44:28.214Z,99957.31
2023-03-23T18:46:55.017Z,99952.41
2023-03-23T18:49:21.946Z,99961.81
2023-03-23T18:51:48.651Z,99959.97
2023-03-23T18:54:15.402Z,99954.50
2023-03-23T18:56:42.146Z,99954.88
2023-03-23T18:59:08.881Z,99955.66
2023-03-23T19:01:35.917Z,99965.94
2023-03-23T19:04:06.390Z,99955.13
2023-03-23T19:06:34.615Z,99951.22
2023-03-23T19:09:01.515Z,99951.03
2023-03-23T19:11:28.299Z,99964.53
2023-03-23T19:14:02.540Z,99961.47
2023-03-23T19:16:32.727Z,99957.19
2023-03-23T19:19:01.967Z,99957.16
2023-03-23T19:21:31.489Z,99957.38
2023-03-23T19:23:59.205Z,99957.16
2023-03-23T19:26:34.780Z,99965.59
2023-03-23T19:29:25.295Z,99955.97
2023-03-23T19:31:51.731Z,99959.03
2023-03-23T19:34:18.665Z,99957.56
2023-03-23T19:36:53.815Z,99954.25
2023-03-23T19:39:23.180Z,99947.53
2023-03-23T19:41:51.023Z,99963.09
2023-03-23T19:44:18.012Z,99960.19
2023-03-23T19:46:45.436Z,99961.22
2023-03-23T19:49:12.337Z,99957.53
2023-03-23T19:51:39.782Z,99973.91
2023-03-23T19:54:08.006Z,99967.13
2023-03-23T19:56:35.853Z,99968.16
2023-03-23T19:59:03.110Z,99967.97
2023-03-23T20:01:29.973Z,99981.97
2023-03-23T20:03:59.953Z,99976.81
2023-03-23T20:06:29.239Z,99980.59
2023-03-23T20:08:59.865Z,99975.94
2023-03-23T20:11:27.678Z,99978.81
2023-03-23T20:13:55.184Z,99984.94
2023-03-23T20:16:22.325Z,99983.09
2023-03-23T20:18:50.126Z,99983.09
2023-03-23T20:21:22.946Z,99990.50
2023-03-23T20:23:52.158Z,99985.97
2023-03-23T20:26:34.420Z,99986.94
2023-03-23T20:29:01.750Z,99966.66
2023-03-23T20:31:32.062Z,99987.41
2023-03-23T20:34:03.127Z,99979.84
2023-03-23T20:36:35.162Z,99980.88
2023-03-23T20:39:08.299Z,99978.78
2023-03-23T20:41:41.437Z,99960.78
2023-03-23T20:44:14.137Z,99965.75
2023-03-23T20:46:42.617Z,99977.16
2023-03-23T20:49:10.104Z,99972.53
2023-03-23T20:51:37.389Z,99953.06
2023-03-23T20:54:05.970Z,99970.75
2023-03-23T20:56:33.794Z,99967.13
2023-03-23T20:59:01.569Z,99972.47
2023-03-23T21:01:28.549Z,99966.03
2023-03-23T21:03:57.067Z,99973.16
2023-03-23T21:06:28.241Z,99972.47
2023-03-23T21:08:56.591Z,99974.53
2023-03-23T21:11:26.723Z,99973.78
2023-03-23T21:13:53.987Z,99971.84
2023-03-23T21:16:21.394Z,99971.50
2023-03-23T21:18:48.170Z,99963.28
2023-03-23T21:21:18.475Z,99955.09
2023-03-23T21:23:47.490Z,99972.56
2023-03-23T21:26:17.102Z,99957.84
2023-03-23T21:28:45.286Z,99961.97
2023-03-23T21:31:12.486Z,99958.00
2023-03-23T21:33:39.551Z,99948.91
2023-03-23T21:36:07.064Z,99949.19
2023-03-23T21:38:34.284Z,99952.94
2023-03-23T21:41:07.592Z,99957.31
2023-03-23T21:43:34.551Z,99948.06
2023-03-23T21:46:05.026Z,99953.75
2023-03-23T21:48:33.094Z,99953.63
2023-03-23T21:51:09.320Z,99957.25
2023-03-23T21:53:37.122Z,99945.84
2023-03-23T21:56:06.561Z,99950.56
2023-03-23T21:58:33.966Z,99954.38
2023-03-23T22:01:02.214Z,99943.09
2023-03-23T22:03:33.132Z,99946.88
2023-03-23T22:06:13.806Z,99951.25
2023-03-23T22:08:41.953Z,99944.56
2023-03-23T22:11:15.144Z,99945.22
2023-03-23T22:13:42.313Z,99954.28
2023-03-23T22:16:11.665Z,99955.31
2023-03-23T22:18:39.391Z,99958.69
2023-03-23T22:21:07.435Z,99951.88
2023-03-23T22:23:35.819Z,99954.88
2023-03-23T22:26:02.818Z,99961.88
2023-03-23T22:28:31.143Z,99962.59
2023-03-23T22:31:05.717Z,99959.94
2023-03-23T22:33:33.486Z,99960.78
2023-03-23T22:36:06.153Z,99950.78
2023-03-23T22:38:34.388Z,99952.25
2023-03-23T22:41:07.132Z,99960.91
2023-03-23T22:43:35.526Z,99960.72
2023-03-23T22:46:02.947Z,99956.44
2023-03-23T22:48:29.840Z,99954.44
2023-03-23T22:50:58.468Z,99957.63
2023-03-23T22:53:25.984Z,99960.03
2023-03-23T22:55:55.737Z,99957.63
2023-03-23T22:58:23.269Z,99958.38
2023-03-23T23:00:54.772Z,99957.34
2023-03-23T23:03:21.484Z,99959.28
2023-03-23T23:05:52.609Z,99955.19
2023-03-23T23:08:19.559Z,99957.16
2023-03-23T23:10:48.832Z,99942.84
2023-03-23T23:13:15.810Z,99955.56
2023-03-23T23:15:45.306Z,99948.16
2023-03-23T23:18:12.567Z,99956.25
2023-03-23T23:20:41.134Z,99943.06
2023-03-23T23:23:08.074Z,99960.28
2023-03-23T23:25:35.561Z,99944.56
2023-03-23T23:28:04.361Z,99954.22
2023-03-23T23:30:31.531Z,99965.19
2023-03-23T23:32:58.957Z,99961.59
2023-03-23T23:35:26.209Z,99972.63
2023-03-23T23:37:53.518Z,99958.06
2023-03-23T23:40:20.590Z,99961.84
2023-03-23T23:42:49.950Z,99953.00
2023-03-23T23:45:19.810Z,99957.31
2023-03-23T23:47:47.079Z,99947.03
2023-03-23T23:50:14.849Z,99951.59
2023-03-23T23:52:42.668Z,99940.06
2023-03-23T23:55:10.521Z,99934.28
2023-03-23T23:57:37.705Z,99918.66
